Time;durP1;ratioP1;P1;durP2;ratioP2;P2;SDS_P1;SDS_P2;PMS_P1;PMS_P2;Temp;Humidity;BMP_temperature;BMP_pressure;BME280_temperature;BME280_humidity;BME280_pressure;Samples;Min_cycle;Max_cycle;Signal;HPM_P1;HPM_P2
2022/09/21 00:00:39;;;;;;;0.43;0.00;;;9.10;99.90;;;;;;5034175;28;20049;-73
2022/09/21 00:03:05;;;;;;;1.80;0.40;;;9.10;99.90;;;;;;5034025;28;20017;-74
2022/09/21 00:05:32;;;;;;;3.47;0.13;;;9.10;99.90;;;;;;5032546;28;20026;-73
2022/09/21 00:08:04;;;;;;;1.55;0.20;;;9.10;99.90;;;;;;5032778;28;20033;-74
2022/09/21 00:10:30;;;;;;;2.00;0.20;;;9.10;99.90;;;;;;5033743;28;20021;-74
2022/09/21 00:12:57;;;;;;;1.17;0.30;;;9.10;99.90;;;;;;5034109;28;20018;-73
2022/09/21 00:15:24;;;;;;;1.67;0.10;;;9.10;99.90;;;;;;5033810;28;20475;-74
2022/09/21 00:17:52;;;;;;;2.22;0.20;;;9.10;99.90;;;;;;5032602;28;20028;-74
2022/09/21 00:20:20;;;;;;;1.92;0.10;;;9.10;99.90;;;;;;5034117;28;20045;-74
2022/09/21 00:22:46;;;;;;;1.60;0.10;;;9.00;99.90;;;;;;5032469;28;20048;-74
2022/09/21 00:25:13;;;;;;;0.30;0.00;;;9.00;99.90;;;;;;5033618;28;20061;-74
2022/09/21 00:27:39;;;;;;;1.92;0.00;;;9.00;99.90;;;;;;5032266;28;20025;-74
2022/09/21 00:30:06;;;;;;;2.20;0.00;;;9.00;99.90;;;;;;5033608;28;20024;-74
2022/09/21 00:32:35;;;;;;;2.55;0.60;;;8.90;99.90;;;;;;5032294;28;20075;-74
2022/09/21 00:35:01;;;;;;;0.52;0.10;;;8.90;99.90;;;;;;5033541;28;20367;-74
2022/09/21 00:37:28;;;;;;;0.73;0.17;;;8.90;99.90;;;;;;5033427;28;20018;-73
2022/09/21 00:39:54;;;;;;;0.82;0.22;;;8.80;99.90;;;;;;5033595;28;20393;-74
2022/09/21 00:42:23;;;;;;;3.72;0.35;;;8.80;99.90;;;;;;5033741;28;20108;-74
2022/09/21 00:44:49;;;;;;;1.30;0.00;;;8.80;99.90;;;;;;5033101;28;20021;-73
2022/09/21 00:47:22;;;;;;;1.45;0.10;;;8.80;99.90;;;;;;5033261;28;20501;-73
2022/09/21 00:49:53;;;;;;;3.83;0.00;;;8.80;99.90;;;;;;5032139;28;20057;-73
2022/09/21 00:52:21;;;;;;;1.13;0.10;;;8.70;99.90;;;;;;5033420;28;20100;-73
2022/09/21 00:54:53;;;;;;;4.18;0.30;;;8.70;99.90;;;;;;5033599;28;20029;-73
2022/09/21 00:57:21;;;;;;;0.52;0.00;;;8.60;99.90;;;;;;5033201;28;20025;-73
2022/09/21 00:59:50;;;;;;;1.40;0.00;;;8.60;99.90;;;;;;5032011;28;20055;-73
2022/09/21 01:02:17;;;;;;;3.60;0.00;;;8.60;99.90;;;;;;5033960;28;20033;-73
2022/09/21 01:04:43;;;;;;;0.30;0.00;;;8.50;99.90;;;;;;5033374;28;20025;-73
2022/09/21 01:07:17;;;;;;;0.20;0.00;;;8.50;99.90;;;;;;5033678;28;20433;-73
2022/09/21 01:09:45;;;;;;;1.45;0.08;;;8.40;99.90;;;;;;5033437;28;20470;-73
2022/09/21 01:12:26;;;;;;;2.38;0.30;;;8.40;99.90;;;;;;5033136;28;20022;-75
2022/09/21 01:15:28;;;;;;;2.42;0.00;;;8.40;99.90;;;;;;5033166;28;20087;-73
2022/09/21 01:18:31;;;;;;;2.67;0.05;;;8.30;99.90;;;;;;5033149;28;20025;-73
2022/09/21 01:21:06;;;;;;;0.88;0.00;;;8.30;99.90;;;;;;5033184;28;20033;-73
2022/09/21 01:23:50;;;;;;;3.28;0.40;;;8.30;99.90;;;;;;5033671;28;20042;-74
2022/09/21 01:26:40;;;;;;;2.03;0.00;;;8.30;99.90;;;;;;5031873;28;20029;-73
2022/09/21 01:29:18;;;;;;;1.25;0.17;;;8.30;99.90;;;;;;5033172;28;20045;-73
2022/09/21 01:32:05;;;;;;;3.20;0.10;;;8.20;99.90;;;;;;5033549;28;20022;-73
2022/09/21 01:34:47;;;;;;;0.32;0.20;;;8.20;99.90;;;;;;5033363;28;20021;-73
2022/09/21 01:37:31;;;;;;;0.52;0.00;;;8.20;99.90;;;;;;5032049;28;20033;-73
2022/09/21 01:40:03;;;;;;;1.58;0.00;;;8.20;99.90;;;;;;5032935;28;20032;-73
2022/09/21 01:42:31;;;;;;;2.08;0.25;;;8.10;99.90;;;;;;5033554;28;20185;-74
2022/09/21 01:45:01;;;;;;;0.93;0.35;;;8.10;99.90;;;;;;5032949;28;20096;-74
2022/09/21 01:47:30;;;;;;;1.48;0.10;;;8.10;99.90;;;;;;5032679;28;20052;-74
2022/09/21 01:50:00;;;;;;;4.03;0.63;;;8.00;99.90;;;;;;5033146;28;20029;-75
2022/09/21 01:52:35;;;;;;;5.75;0.75;;;8.00;99.90;;;;;;5033505;28;20017;-74
2022/09/21 01:55:06;;;;;;;1.42;0.10;;;8.00;99.90;;;;;;5032862;28;20049;-73
2022/09/21 01:58:12;;;;;;;0.75;0.08;;;7.90;99.90;;;;;;5033938;28;20021;-73
2022/09/21 02:00:40;;;;;;;0.60;0.20;;;7.80;99.90;;;;;;5008859;28;20124;-74
2022/09/21 02:03:34;;;;;;;0.73;0.30;;;7.80;99.90;;;;;;5036396;28;20017;-74
2022/09/21 02:06:01;;;;;;;4.38;0.20;;;7.80;99.90;;;;;;5030244;28;20068;-74
2022/09/21 02:08:30;;;;;;;2.65;0.20;;;7.70;99.90;;;;;;5036328;28;20026;-74
2022/09/21 02:10:58;;;;;;;0.65;0.10;;;7.60;99.90;;;;;;5036565;28;20034;-74
2022/09/21 02:13:26;;;;;;;4.78;0.45;;;7.60;99.90;;;;;;5034901;28;20483;-74
2022/09/21 02:16:07;;;;;;;1.33;0.10;;;7.60;99.90;;;;;;5036140;28;20018;-74
2022/09/21 02:18:35;;;;;;;0.60;0.15;;;7.60;99.90;;;;;;5036053;28;20029;-74
2022/09/21 02:21:08;;;;;;;1.83;0.20;;;7.60;99.90;;;;;;5034825;28;20434;-73
2022/09/21 02:23:44;;;;;;;1.60;0.52;;;7.60;99.90;;;;;;5036450;28;20383;-74
2022/09/21 02:26:18;;;;;;;0.80;0.22;;;7.50;99.90;;;;;;5036051;28;20100;-74
2022/09/21 02:28:54;;;;;;;1.20;0.00;;;7.50;99.90;;;;;;5036105;28;20032;-74
2022/09/21 02:31:44;;;;;;;3.03;0.00;;;7.50;99.90;;;;;;5036025;28;20032;-74
2022/09/21 02:34:27;;;;;;;1.33;0.15;;;7.40;99.90;;;;;;5035893;28;20044;-73
2022/09/21 02:37:09;;;;;;;1.15;0.10;;;7.30;99.90;;;;;;5035883;28;20017;-74
2022/09/21 02:39:45;;;;;;;1.30;0.20;;;7.30;99.90;;;;;;5035937;28;20100;-74
2022/09/21 02:42:23;;;;;;;1.50;0.30;;;7.30;99.90;;;;;;5036132;28;20429;-73
2022/09/21 02:45:06;;;;;;;1.17;0.20;;;7.30;99.90;;;;;;5035699;28;20033;-74
2022/09/21 02:48:01;;;;;;;0.47;0.08;;;7.30;99.90;;;;;;5035337;28;20280;-74
2022/09/21 02:51:05;;;;;;;0.47;0.20;;;7.30;99.90;;;;;;5022746;28;20041;-74
2022/09/21 02:53:35;;;;;;;2.08;0.10;;;7.30;99.90;;;;;;4974924;28;20018;-74
2022/09/21 02:56:05;;;;;;;0.35;0.10;;;7.40;99.90;;;;;;5024713;28;20095;-74
2022/09/21 02:58:36;;;;;;;3.13;0.20;;;7.40;99.90;;;;;;5034186;28;20041;-74
2022/09/21 03:01:07;;;;;;;2.63;0.00;;;7.40;99.90;;;;;;5035956;28;20370;-74
2022/09/21 03:03:33;;;;;;;1.38;0.10;;;7.30;99.90;;;;;;5035760;28;20466;-74
2022/09/21 03:05:59;;;;;;;1.00;0.17;;;7.20;99.90;;;;;;5034042;28;20028;-74
2022/09/21 03:08:24;;;;;;;1.40;0.20;;;7.10;99.90;;;;;;5033405;28;20032;-74
2022/09/21 03:10:50;;;;;;;2.40;0.20;;;7.10;99.90;;;;;;5035467;28;20017;-73
2022/09/21 03:13:17;;;;;;;1.90;0.30;;;7.10;99.90;;;;;;5035478;28;20026;-74
2022/09/21 03:15:44;;;;;;;0.40;0.10;;;7.10;99.90;;;;;;5035164;28;20021;-73
2022/09/21 03:18:10;;;;;;;1.77;0.55;;;7.10;99.90;;;;;;5034100;28;20376;-73
2022/09/21 03:20:38;;;;;;;2.08;0.00;;;7.10;99.90;;;;;;5033759;28;20021;-73
2022/09/21 03:23:03;;;;;;;3.50;0.20;;;7.10;99.90;;;;;;5033751;28;20076;-73
2022/09/21 03:25:29;;;;;;;1.17;0.10;;;7.10;99.90;;;;;;5035675;28;20022;-73
2022/09/21 03:27:56;;;;;;;2.72;0.25;;;7.00;99.90;;;;;;5033630;28;20021;-73
2022/09/21 03:30:24;;;;;;;2.95;0.20;;;7.00;99.90;;;;;;5034937;28;20017;-74
2022/09/21 03:32:53;;;;;;;0.98;0.35;;;7.00;99.90;;;;;;5034896;28;20040;-74
2022/09/21 03:35:20;;;;;;;;;;;6.90;99.90;;;;;;5035284;28;20025;-74
2022/09/21 03:37:47;;;;;;;1.50;0.30;;;6.90;99.90;;;;;;5033390;28;19927;-74
2022/09/21 03:40:13;;;;;;;0.75;0.20;;;6.90;99.90;;;;;;5034630;28;20033;-73
2022/09/21 03:42:39;;;;;;;1.40;0.28;;;6.80;99.90;;;;;;5033362;28;20033;-73
2022/09/21 03:45:05;;;;;;;2.20;0.43;;;6.80;99.90;;;;;;5034557;28;20026;-73
2022/09/21 03:47:31;;;;;;;0.30;0.00;;;6.80;99.90;;;;;;5033152;28;20026;-74
2022/09/21 03:49:56;;;;;;;0.15;0.00;;;6.80;99.90;;;;;;5034480;28;20028;-74
2022/09/21 03:52:22;;;;;;;1.15;0.32;;;6.80;99.90;;;;;;5033300;28;20025;-74
2022/09/21 03:54:51;;;;;;;1.80;0.28;;;6.80;99.90;;;;;;5033326;28;20057;-74
2022/09/21 03:57:16;;;;;;;1.90;0.00;;;6.70;99.90;;;;;;5033002;28;20030;-74
2022/09/21 03:59:42;;;;;;;3.10;0.40;;;6.70;99.90;;;;;;5034533;28;20071;-73
2022/09/21 04:02:08;;;;;;;1.08;0.00;;;7.10;99.90;;;;;;5034533;28;20112;-73
2022/09/21 04:04:33;;;;;;;4.78;0.10;;;6.70;99.90;;;;;;5034302;28;20430;-73
2022/09/21 04:06:59;;;;;;;0.32;0.10;;;6.70;99.90;;;;;;5033937;28;20489;-74
2022/09/21 04:09:25;;;;;;;0.98;0.13;;;6.70;99.90;;;;;;5034463;28;20052;-73
2022/09/21 04:11:52;;;;;;;0.60;0.00;;;6.60;99.90;;;;;;5034037;28;20475;-75
2022/09/21 04:14:18;;;;;;;2.58;0.43;;;6.60;99.90;;;;;;5034361;28;20033;-73
2022/09/21 04:16:44;;;;;;;3.10;0.15;;;6.60;99.90;;;;;;5034351;28;20108;-73
2022/09/21 04:19:10;;;;;;;0.75;0.10;;;6.60;99.90;;;;;;5033728;28;20034;-74
2022/09/21 04:21:36;;;;;;;0.80;0.10;;;6.60;99.90;;;;;;5033104;28;20036;-74
2022/09/21 04:24:03;;;;;;;1.77;0.15;;;6.60;99.90;;;;;;5034049;28;20030;-74
2022/09/21 04:26:31;;;;;;;1.02;0.10;;;6.60;99.90;;;;;;5033705;28;20107;-74
2022/09/21 04:28:58;;;;;;;0.80;0.00;;;6.60;99.90;;;;;;5033993;28;20463;-74
2022/09/21 04:31:25;;;;;;;2.95;0.05;;;6.60;99.90;;;;;;5032524;28;20021;-74
2022/09/21 04:33:52;;;;;;;0.50;0.30;;;6.50;99.90;;;;;;5033801;28;20026;-73
2022/09/21 04:36:18;;;;;;;2.72;0.22;;;6.50;99.90;;;;;;5033670;28;20021;-72
2022/09/21 04:38:44;;;;;;;2.38;0.30;;;6.50;99.90;;;;;;5032588;28;20022;-74
2022/09/21 04:41:11;;;;;;;5.88;1.17;;;6.50;99.90;;;;;;5032462;28;20026;-74
2022/09/21 04:43:36;;;;;;;0.65;0.15;;;6.50;99.90;;;;;;5033911;28;20048;-74
2022/09/21 04:46:10;;;;;;;1.50;0.00;;;6.50;99.90;;;;;;5033591;28;20018;-74
2022/09/21 04:48:37;;;;;;;1.65;0.20;;;6.50;99.90;;;;;;5033559;28;20505;-74
2022/09/21 04:51:03;;;;;;;1.00;0.35;;;6.50;99.90;;;;;;5033697;28;20041;-74
2022/09/21 04:53:29;;;;;;;4.95;0.10;;;6.50;99.90;;;;;;5033841;28;20057;-74
2022/09/21 04:55:55;;;;;;;2.50;0.13;;;6.50;99.90;;;;;;5033880;28;20021;-74
2022/09/21 04:58:22;;;;;;;0.57;0.00;;;6.50;99.90;;;;;;5032390;28;20457;-74
2022/09/21 05:00:56;;;;;;;3.90;0.10;;;6.50;99.90;;;;;;5032277;28;20017;-74
2022/09/21 05:03:23;;;;;;;3.50;0.17;;;6.50;99.90;;;;;;5033776;28;20467;-73
2022/09/21 05:05:53;;;;;;;1.55;0.30;;;6.40;99.90;;;;;;5033395;28;20028;-74
2022/09/21 05:10:01;;;;;;;1.95;0.30;;;6.40;99.90;;;;;;5033494;28;20033;-73
2022/09/21 05:11:06;;;;;;;1.98;0.25;;;6.40;99.90;;;;;;5033222;28;20510;-73
2022/09/21 05:13:32;;;;;;;4.72;0.38;;;6.40;99.90;;;;;;5033421;28;20018;-74
2022/09/21 05:18:25;;;;;;;4.70;0.30;;;6.30;99.90;;;;;;5051729;28;20048;-75
2022/09/21 05:20:58;;;;;;;3.28;0.50;;;6.30;99.90;;;;;;5053393;28;20470;-75
2022/09/21 05:23:24;;;;;;;2.33;0.20;;;6.20;99.90;;;;;;5053556;28;20017;-75
2022/09/21 05:25:50;;;;;;;2.20;0.10;;;6.20;99.90;;;;;;5053201;28;20025;-75
2022/09/21 05:28:19;;;;;;;5.32;0.30;;;6.20;99.90;;;;;;5053071;28;20036;-75
2022/09/21 05:30:54;;;;;;;7.43;0.93;;;6.20;99.90;;;;;;5052055;28;20025;-75
2022/09/21 05:33:21;;;;;;;1.13;0.20;;;6.20;99.90;;;;;;5057165;28;20025;-75
2022/09/21 05:36:13;;;;;;;4.60;0.20;;;6.10;99.90;;;;;;5057197;28;20017;-73
2022/09/21 05:38:39;;;;;;;2.38;0.40;;;6.10;99.90;;;;;;5057231;28;20048;-74
2022/09/21 05:41:05;;;;;;;3.10;0.32;;;6.10;99.90;;;;;;5055895;28;20057;-74
2022/09/21 05:43:31;;;;;;;6.18;0.85;;;6.10;99.90;;;;;;5056769;28;20025;-73
2022/09/21 05:46:15;;;;;;;4.57;0.57;;;6.10;99.90;;;;;;5055383;28;20120;-74
2022/09/21 05:48:46;;;;;;;3.25;0.20;;;6.10;99.90;;;;;;5056729;28;20032;-73
2022/09/21 05:51:26;;;;;;;5.18;0.40;;;6.10;99.90;;;;;;5057015;28;20508;-74
2022/09/21 05:54:03;;;;;;;3.35;0.13;;;6.10;99.90;;;;;;5055596;28;20424;-73
2022/09/21 05:56:54;;;;;;;2.13;0.52;;;6.20;99.90;;;;;;5057034;28;20397;-74
2022/09/21 05:59:29;;;;;;;1.27;0.30;;;6.30;99.90;;;;;;5056933;28;20083;-73
2022/09/21 06:02:12;;;;;;;3.40;0.65;;;6.30;99.90;;;;;;5056777;28;20386;-74
2022/09/21 06:04:38;;;;;;;1.85;0.35;;;6.40;99.90;;;;;;5055335;28;20029;-74
2022/09/21 06:07:04;;;;;;;3.60;0.40;;;6.40;99.90;;;;;;5055248;28;20043;-74
2022/09/21 06:09:29;;;;;;;1.70;0.50;;;6.50;99.90;;;;;;5056532;28;20510;-73
2022/09/21 06:11:55;;;;;;;2.20;0.40;;;6.60;99.90;;;;;;5056282;28;20028;-73
2022/09/21 06:14:24;;;;;;;3.72;0.20;;;6.70;99.90;;;;;;5055037;28;20040;-74
2022/09/21 06:16:50;;;;;;;3.17;0.40;;;7.30;99.90;;;;;;5054817;28;20551;-74
2022/09/21 06:19:16;;;;;;;7.88;0.70;;;6.80;99.90;;;;;;5056082;28;20029;-74
2022/09/21 06:21:42;;;;;;;1.17;0.15;;;6.90;99.90;;;;;;5056007;28;20383;-74
2022/09/21 06:24:07;;;;;;;3.03;0.50;;;7.00;99.90;;;;;;5056160;28;20466;-74
2022/09/21 06:26:33;;;;;;;3.60;0.50;;;7.10;99.90;;;;;;5055708;28;20021;-74
2022/09/21 06:28:59;;;;;;;2.65;0.35;;;7.20;99.90;;;;;;5055841;28;20023;-74
2022/09/21 06:31:26;;;;;;;0.60;0.20;;;7.30;99.90;;;;;;5055952;28;20032;-74
2022/09/21 06:33:52;;;;;;;3.25;0.45;;;7.40;99.90;;;;;;5055826;28;20017;-74
2022/09/21 06:36:17;;;;;;;2.28;0.50;;;7.50;99.90;;;;;;5054347;28;20501;-74
2022/09/21 06:38:43;;;;;;;1.38;0.47;;;7.70;99.90;;;;;;5055611;28;20024;-74
2022/09/21 06:41:08;;;;;;;5.20;0.82;;;7.80;99.90;;;;;;5056152;28;20021;-74
2022/09/21 06:43:34;;;;;;;2.40;0.32;;;8.00;99.90;;;;;;5053086;28;20024;-74
2022/09/21 06:46:01;;;;;;;2.95;0.80;;;8.10;99.90;;;;;;5055609;28;20116;-75
2022/09/21 06:48:28;;;;;;;2.80;0.32;;;8.30;99.90;;;;;;5055601;28;20374;-75
2022/09/21 06:50:58;;;;;;;2.47;0.30;;;8.50;99.90;;;;;;5055424;28;20485;-75
2022/09/21 06:53:24;;;;;;;5.13;1.30;;;8.70;99.90;;;;;;5053981;28;20541;-73
2022/09/21 06:55:51;;;;;;;1.83;0.35;;;8.80;99.90;;;;;;5055554;28;20021;-73
2022/09/21 06:58:16;;;;;;;4.85;0.73;;;9.00;99.90;;;;;;5053983;28;20024;-74
2022/09/21 07:00:42;;;;;;;2.78;0.90;;;9.20;99.90;;;;;;5055221;28;20035;-75
2022/09/21 07:03:10;;;;;;;3.50;0.85;;;9.30;99.90;;;;;;5055090;28;20490;-75
2022/09/21 07:05:36;;;;;;;6.13;0.47;;;9.50;99.90;;;;;;5055005;28;20070;-75
2022/09/21 07:08:02;;;;;;;3.53;0.55;;;9.70;99.90;;;;;;5055077;28;20108;-74
2022/09/21 07:10:27;;;;;;;2.20;0.38;;;9.80;99.90;;;;;;5055867;28;20519;-73
2022/09/21 07:12:53;;;;;;;4.70;0.50;;;10.00;99.90;;;;;;5055687;28;20018;-75
2022/09/21 07:15:20;;;;;;;5.57;0.68;;;10.10;99.90;;;;;;5053912;28;20017;-74
2022/09/21 07:17:46;;;;;;;3.28;0.20;;;10.30;99.90;;;;;;5054736;28;20440;-75
2022/09/21 07:20:12;;;;;;;1.92;0.20;;;10.40;99.90;;;;;;5054868;28;20021;-75
2022/09/21 07:22:37;;;;;;;4.05;0.68;;;10.60;99.90;;;;;;5053487;28;20017;-75
2022/09/21 07:25:04;;;;;;;3.55;0.30;;;10.80;99.90;;;;;;5054626;28;20474;-75
2022/09/21 07:27:31;;;;;;;9.32;0.43;;;10.90;99.90;;;;;;5053294;28;20067;-75
2022/09/21 07:29:57;;;;;;;4.82;0.85;;;11.00;99.90;;;;;;5054706;28;20021;-75
2022/09/21 07:32:24;;;;;;;5.18;0.30;;;11.20;99.90;;;;;;5054560;28;20547;-75
2022/09/21 07:34:50;;;;;;;1.75;0.10;;;11.30;99.90;;;;;;5054611;28;20021;-75
2022/09/21 07:37:16;;;;;;;3.72;0.20;;;11.50;99.90;;;;;;5054423;28;20090;-74
2022/09/21 07:39:41;;;;;;;5.82;0.20;;;11.60;99.90;;;;;;5054760;28;20500;-74
2022/09/21 07:42:07;;;;;;;1.80;0.13;;;11.70;99.90;;;;;;5053158;28;20098;-74
2022/09/21 07:44:33;;;;;;;3.20;0.10;;;11.90;99.90;;;;;;5053152;28;20035;-74
2022/09/21 07:46:59;;;;;;;1.50;0.10;;;12.00;99.90;;;;;;5052909;28;20381;-74
2022/09/21 07:49:24;;;;;;;2.33;0.13;;;12.20;99.90;;;;;;5054253;28;20025;-74
2022/09/21 07:51:50;;;;;;;3.45;0.28;;;12.20;99.90;;;;;;5054200;28;20025;-74
2022/09/21 07:54:16;;;;;;;1.42;0.30;;;12.30;99.90;;;;;;5053985;28;20040;-74
2022/09/21 07:59:04;;;;;;;3.00;0.00;;;12.50;99.90;;;;;;5054266;28;20081;-74
2022/09/21 07:59:27;;;;;;;3.75;0.35;;;12.60;99.90;;;;;;5053902;28;20036;-74
2022/09/21 08:01:53;;;;;;;3.20;0.00;;;12.70;99.90;;;;;;5054053;28;20100;-74
2022/09/21 08:04:19;;;;;;;2.63;0.10;;;12.90;99.90;;;;;;5053913;28;20059;-75
2022/09/21 08:06:44;;;;;;;4.65;0.20;;;13.00;99.90;;;;;;5053688;28;20024;-75
2022/09/21 08:09:10;;;;;;;2.83;0.00;;;13.00;99.90;;;;;;5053833;28;20025;-74
2022/09/21 08:11:36;;;;;;;1.45;0.00;;;13.80;99.90;;;;;;5053931;28;20017;-75
2022/09/21 08:14:02;;;;;;;3.53;0.17;;;13.20;99.90;;;;;;5052774;28;20088;-76
2022/09/21 08:16:29;;;;;;;0.82;0.00;;;13.40;99.90;;;;;;5053554;28;20433;-75
2022/09/21 08:18:55;;;;;;;5.53;0.45;;;13.50;99.90;;;;;;5053747;28;20378;-74
2022/09/21 08:21:21;;;;;;;0.32;0.00;;;13.50;99.90;;;;;;5053713;28;20021;-76
2022/09/21 08:23:48;;;;;;;1.35;0.00;;;13.70;99.90;;;;;;5053687;28;20417;-74
2022/09/21 08:26:19;;;;;;;0.68;0.00;;;13.70;99.90;;;;;;5053471;28;20075;-75
2022/09/21 08:28:50;;;;;;;2.22;0.10;;;13.80;99.90;;;;;;5052515;28;20052;-75
2022/09/21 08:31:18;;;;;;;1.30;0.00;;;13.90;99.90;;;;;;5053385;28;20513;-75
2022/09/21 08:33:44;;;;;;;11.57;0.38;;;14.00;99.90;;;;;;5053653;28;20021;-75
2022/09/21 08:36:10;;;;;;;3.60;0.00;;;14.10;99.90;;;;;;5052144;28;20531;-75
2022/09/21 08:38:37;;;;;;;3.15;0.00;;;14.20;99.90;;;;;;5052172;28;20055;-75
2022/09/21 08:41:33;;;;;;;1.83;0.13;;;14.30;99.90;;;;;;5053477;28;20032;-75
2022/09/21 08:44:09;;;;;;;1.92;0.08;;;14.40;99.90;;;;;;5012619;28;20063;-75
2022/09/21 08:46:36;;;;;;;1.55;0.00;;;14.50;99.90;;;;;;5053509;28;20060;-75
2022/09/21 08:49:08;;;;;;;1.17;0.00;;;14.60;99.90;;;;;;5053833;28;20071;-75
2022/09/21 08:51:39;;;;;;;5.10;0.00;;;14.70;99.90;;;;;;5052091;28;20032;-75
2022/09/21 08:54:18;;;;;;;1.38;0.03;;;14.80;99.90;;;;;;5052593;28;20024;-75
2022/09/21 08:56:44;;;;;;;2.58;0.15;;;14.90;99.90;;;;;;5051850;28;20119;-75
2022/09/21 08:59:14;;;;;;;5.43;0.47;;;15.00;99.90;;;;;;5053181;28;20025;-75
2022/09/21 09:01:49;;;;;;;2.30;0.20;;;15.10;99.90;;;;;;5053303;28;20597;-75
2022/09/21 09:04:42;;;;;;;0.85;0.00;;;15.20;99.90;;;;;;5053715;28;20496;-75
2022/09/21 09:07:31;;;;;;;1.63;0.30;;;15.20;99.90;;;;;;5055683;28;20021;-76
2022/09/21 09:10:05;;;;;;;2.35;0.00;;;15.30;99.90;;;;;;5057426;28;20074;-75
2022/09/21 09:12:36;;;;;;;0.50;0.13;;;15.30;99.90;;;;;;5055921;28;20025;-75
2022/09/21 09:15:33;;;;;;;2.78;0.00;;;15.40;99.90;;;;;;5057154;28;20025;-76
2022/09/21 09:18:12;;;;;;;5.00;0.10;;;15.50;99.90;;;;;;5055983;28;20055;-76
2022/09/21 09:20:57;;;;;;;3.92;0.00;;;15.70;99.90;;;;;;5057018;28;20048;-76
2022/09/21 09:23:31;;;;;;;2.22;0.08;;;15.70;99.90;;;;;;5057050;28;20059;-75
2022/09/21 09:26:03;;;;;;;2.50;0.28;;;15.90;99.90;;;;;;5055671;28;20032;-76
2022/09/21 09:28:40;;;;;;;3.28;0.00;;;15.80;99.90;;;;;;5057120;28;20017;-75
2022/09/21 09:31:18;;;;;;;3.10;0.30;;;15.80;99.90;;;;;;5056871;28;20021;-75
2022/09/21 09:33:54;;;;;;;1.88;0.00;;;15.90;99.90;;;;;;5056890;28;20021;-75
2022/09/21 09:36:20;;;;;;;0.57;0.08;;;16.00;99.90;;;;;;5055455;28;20025;-75
2022/09/21 09:38:49;;;;;;;6.65;0.55;;;16.00;99.90;;;;;;5056789;28;20096;-76
2022/09/21 09:41:32;;;;;;;1.45;0.30;;;16.20;99.90;;;;;;5057366;28;20425;-75
2022/09/21 09:44:27;;;;;;;2.05;0.00;;;16.20;99.90;;;;;;5056612;28;20017;-77
2022/09/21 09:47:01;;;;;;;0.80;0.10;;;16.10;99.90;;;;;;5056532;28;20036;-75
2022/09/21 09:49:36;;;;;;;2.25;0.00;;;16.20;99.90;;;;;;5056802;28;20111;-76
2022/09/21 09:52:03;;;;;;;3.47;0.43;;;16.30;99.90;;;;;;5055274;28;20033;-76
2022/09/21 09:54:33;;;;;;;0.10;0.00;;;16.40;99.90;;;;;;5056886;28;20037;-76
2022/09/21 09:57:03;;;;;;;2.38;0.00;;;16.60;99.90;;;;;;5055214;28;20051;-76
2022/09/21 09:59:50;;;;;;;2.65;0.47;;;16.40;99.90;;;;;;5055529;28;20025;-75
2022/09/21 10:02:25;;;;;;;2.40;0.00;;;16.40;99.90;;;;;;5056626;28;20482;-75
2022/09/21 10:05:04;;;;;;;0.75;0.20;;;16.40;99.90;;;;;;5054540;28;20055;-76
2022/09/21 10:07:40;;;;;;;1.65;0.10;;;16.30;99.90;;;;;;5056671;28;20036;-76
2022/09/21 10:10:22;;;;;;;0.52;0.00;;;16.40;99.90;;;;;;5054933;28;20050;-75
2022/09/21 10:12:50;;;;;;;1.48;0.00;;;16.40;99.90;;;;;;5054929;28;20017;-75
2022/09/21 10:15:18;;;;;;;1.67;0.00;;;16.50;99.90;;;;;;5054791;28;20433;-75
2022/09/21 10:17:47;;;;;;;6.00;0.38;;;16.70;99.90;;;;;;5055837;28;20032;-76
2022/09/21 10:20:16;;;;;;;1.35;0.15;;;16.50;99.90;;;;;;5055939;28;20033;-76
2022/09/21 10:22:46;;;;;;;;;;;16.70;99.90;;;;;;5056286;28;20482;-75
2022/09/21 10:25:17;;;;;;;0.50;0.00;;;16.80;99.90;;;;;;5054611;28;19936;-75
2022/09/21 10:27:47;;;;;;;0.52;0.00;;;17.00;99.90;;;;;;5055974;28;20070;-75
2022/09/21 10:30:37;;;;;;;1.75;0.13;;;17.20;99.90;;;;;;5056398;28;20021;-75
2022/09/21 10:33:17;;;;;;;0.57;0.00;;;17.40;99.90;;;;;;5055696;28;20096;-76
2022/09/21 10:35:49;;;;;;;3.38;0.05;;;17.50;99.90;;;;;;5056171;28;20021;-74
2022/09/21 10:38:19;;;;;;;6.93;0.30;;;17.50;99.90;;;;;;5054420;28;20060;-76
2022/09/21 10:40:46;;;;;;;0.65;0.00;;;17.50;99.90;;;;;;5055685;28;20029;-76
2022/09/21 10:43:34;;;;;;;1.95;0.00;;;17.30;99.90;;;;;;5055568;28;20104;-75
2022/09/21 10:46:01;;;;;;;4.50;0.00;;;17.30;99.90;;;;;;5055521;28;20035;-75
2022/09/21 10:48:27;;;;;;;1.80;0.10;;;17.50;99.90;;;;;;5055495;28;20025;-75
2022/09/21 10:50:55;;;;;;;0.22;0.00;;;17.70;99.90;;;;;;5054094;28;20025;-75
2022/09/21 10:53:27;;;;;;;1.92;0.00;;;17.70;99.90;;;;;;5055739;28;20017;-75
2022/09/21 10:55:59;;;;;;;1.08;0.00;;;17.60;99.90;;;;;;5055156;28;20049;-73
2022/09/21 10:58:25;;;;;;;2.80;0.00;;;17.30;99.90;;;;;;5053950;28;20063;-72
2022/09/21 11:00:52;;;;;;;1.95;0.13;;;17.20;99.90;;;;;;5054005;28;20084;-74
2022/09/21 11:03:29;;;;;;;0.52;0.00;;;17.00;99.90;;;;;;5055214;28;20028;-73
2022/09/21 11:06:28;;;;;;;1.45;0.08;;;16.90;99.90;;;;;;5055597;28;20055;-73
2022/09/21 11:08:59;;;;;;;1.95;0.00;;;16.90;99.90;;;;;;5040272;28;20091;-73
2022/09/21 11:11:48;;;;;;;1.20;0.20;;;16.80;99.90;;;;;;5054961;28;20040;-73
2022/09/21 11:14:48;;;;;;;0.68;0.20;;;16.80;99.90;;;;;;5053938;28;20021;-74
2022/09/21 11:17:13;;;;;;;0.80;0.00;;;16.70;99.90;;;;;;5054604;28;20041;-73
2022/09/21 11:19:54;;;;;;;1.63;0.00;;;16.60;99.90;;;;;;5055402;28;20367;-73
2022/09/21 11:22:41;;;;;;;3.28;0.30;;;16.60;99.90;;;;;;5055373;28;20191;-73
2022/09/21 11:25:24;;;;;;;1.23;0.00;;;16.60;99.90;;;;;;5054780;28;20029;-73
2022/09/21 11:28:12;;;;;;;3.47;0.17;;;16.70;99.90;;;;;;5054624;28;20470;-73
2022/09/21 11:31:04;;;;;;;0.57;0.00;;;16.70;99.90;;;;;;5052831;28;20017;-73
2022/09/21 11:34:03;;;;;;;0.98;0.00;;;17.00;99.90;;;;;;5054655;28;20025;-73
2022/09/21 11:36:50;;;;;;;2.05;0.00;;;17.20;99.90;;;;;;5053936;28;20099;-73
2022/09/21 11:39:39;;;;;;;3.67;0.10;;;17.20;99.90;;;;;;5054509;28;20382;-73
2022/09/21 11:42:04;;;;;;;;;;;17.20;99.90;;;;;;5055062;28;20381;-73
2022/09/21 11:44:57;;;;;;;0.20;0.00;;;17.10;99.90;;;;;;5054428;28;19999;-73
2022/09/21 11:47:50;;;;;;;0.30;0.00;;;17.10;99.90;;;;;;5054620;28;20078;-73
2022/09/21 11:50:30;;;;;;;1.55;0.10;;;17.10;99.90;;;;;;5054521;28;20029;-73
2022/09/21 11:53:17;;;;;;;3.33;0.55;;;17.30;99.90;;;;;;5052907;28;20075;-73
2022/09/21 11:56:10;;;;;;;3.80;0.00;;;17.50;99.90;;;;;;5052799;28;20107;-75
2022/09/21 11:58:50;;;;;;;1.23;0.00;;;17.60;99.90;;;;;;5054140;28;20104;-75
2022/09/21 12:01:34;;;;;;;1.98;0.00;;;17.80;99.90;;;;;;5053028;28;20075;-75
2022/09/21 12:04:11;;;;;;;1.45;0.13;;;18.30;99.90;;;;;;5052858;28;20043;-75
2022/09/21 12:06:52;;;;;;;2.60;0.00;;;18.70;99.90;;;;;;5053926;28;20028;-75
2022/09/21 12:09:26;;;;;;;1.10;0.00;;;18.90;99.90;;;;;;5054090;28;20111;-75
2022/09/21 12:12:19;;;;;;;1.73;0.00;;;18.90;99.10;;;;;;5055206;28;20025;-75
2022/09/21 12:15:17;;;;;;;0.93;0.00;;;18.70;99.70;;;;;;5052656;28;20017;-75
2022/09/21 12:17:51;;;;;;;1.92;0.30;;;18.50;99.20;;;;;;5053739;28;20029;-75
2022/09/21 12:20:35;;;;;;;1.92;0.25;;;18.10;98.00;;;;;;5053898;28;20021;-75
2022/09/21 12:23:07;;;;;;;0.75;0.15;;;18.00;99.40;;;;;;5053714;28;20060;-75
2022/09/21 12:25:39;;;;;;;2.75;0.13;;;17.90;99.90;;;;;;5052250;28;20500;-75
2022/09/21 12:28:10;;;;;;;0.90;0.00;;;17.80;99.90;;;;;;5053749;28;20033;-75
2022/09/21 12:30:38;;;;;;;0.45;0.00;;;17.80;99.90;;;;;;5054278;28;20025;-75
2022/09/21 12:33:16;;;;;;;0.35;0.00;;;17.70;99.90;;;;;;5052486;28;20017;-75
2022/09/21 12:35:49;;;;;;;1.90;0.05;;;17.60;99.90;;;;;;5052365;28;20398;-75
2022/09/21 12:38:30;;;;;;;3.75;0.00;;;17.50;99.90;;;;;;5052226;28;20029;-75
2022/09/21 12:41:23;;;;;;;1.33;0.00;;;17.50;99.90;;;;;;5052823;28;20025;-75
2022/09/21 12:44:13;;;;;;;1.77;0.00;;;17.50;99.90;;;;;;5053360;28;20017;-75
2022/09/21 12:47:10;;;;;;;1.30;0.10;;;17.40;99.90;;;;;;5051898;28;20040;-75
2022/09/21 12:49:44;;;;;;;3.75;0.35;;;17.30;99.90;;;;;;5053337;28;20021;-75
2022/09/21 12:52:18;;;;;;;0.30;0.00;;;17.30;99.90;;;;;;5052039;28;20025;-75
2022/09/21 12:55:07;;;;;;;1.08;0.00;;;17.20;99.90;;;;;;5053573;28;20040;-75
2022/09/21 12:57:56;;;;;;;0.47;0.00;;;17.20;99.90;;;;;;5051891;28;20021;-75
2022/09/21 13:00:26;;;;;;;2.08;0.00;;;17.20;99.90;;;;;;5053417;28;20024;-75
2022/09/21 13:03:10;;;;;;;0.47;0.00;;;17.20;99.60;;;;;;5053161;28;20056;-75
2022/09/21 13:05:42;;;;;;;2.08;0.00;;;17.20;99.90;;;;;;5053019;28;20025;-75
2022/09/21 13:08:12;;;;;;;2.45;0.00;;;17.20;99.90;;;;;;5053435;28;20025;-75
2022/09/21 13:10:58;;;;;;;2.20;0.00;;;17.20;99.90;;;;;;5052954;28;20052;-75
2022/09/21 13:13:37;;;;;;;1.95;0.10;;;17.20;99.90;;;;;;5051787;28;20023;-75
2022/09/21 13:16:05;;;;;;;0.80;0.00;;;17.30;99.90;;;;;;5053165;28;20052;-75
2022/09/21 13:18:39;;;;;;;0.57;0.10;;;17.40;99.90;;;;;;5053429;28;20037;-75
2022/09/21 13:21:28;;;;;;;5.70;0.00;;;17.30;99.90;;;;;;5053344;28;20108;-75
2022/09/21 13:23:59;;;;;;;0.43;0.10;;;17.40;99.90;;;;;;5052354;28;20053;-75